Time;durP1;ratioP1;P1;durP2;ratioP2;P2;SDS_P1;SDS_P2;PMS_P1;PMS_P2;Temp;Humidity;BMP_temperature;BMP_pressure;BME280_temperature;BME280_humidity;BME280_pressure;Samples;Min_cycle;Max_cycle;Signal;HPM_P1;HPM_P2
2021/06/28 06:28:50;;;;;;;0.30;0.10;;;26.10;57.50;;;;;;5379374;23;20259;-57
2021/06/28 06:31:18;;;;;;;0.10;0.10;;;26.00;57.60;;;;;;4934668;29;20071;-55
2021/06/28 06:33:44;;;;;;;0.05;0.05;;;26.10;57.70;;;;;;4936844;29;20024;-56
2021/06/28 06:36:10;;;;;;;0.15;0.10;;;26.10;57.80;;;;;;4936657;29;20522;-50
2021/06/28 06:38:36;;;;;;;0.10;0.10;;;26.10;57.80;;;;;;4938280;29;20043;-52
2021/06/28 06:41:02;;;;;;;0.10;0.10;;;26.10;57.90;;;;;;4938194;29;20055;-50
2021/06/28 06:43:28;;;;;;;0.10;0.10;;;26.10;57.90;;;;;;4936542;29;20276;-47
2021/06/28 06:45:54;;;;;;;0.00;0.00;;;26.10;58.10;;;;;;4938294;29;20318;-46
2021/06/28 06:48:20;;;;;;;0.08;0.08;;;26.10;58.20;;;;;;4933516;29;20042;-44
2021/06/28 06:50:45;;;;;;;0.32;0.20;;;26.10;58.10;;;;;;4936461;29;20389;-40
2021/06/28 06:53:11;;;;;;;0.10;0.10;;;26.10;58.20;;;;;;4932246;29;20129;-49
2021/06/28 06:55:37;;;;;;;0.20;0.20;;;26.20;58.20;;;;;;4935705;29;20028;-45
2021/06/28 06:58:08;;;;;;;0.10;0.10;;;26.20;58.90;;;;;;4936434;29;20551;-39
2021/06/28 07:00:35;;;;;;;0.20;0.20;;;26.20;57.90;;;;;;4937340;29;20032;-43
2021/06/28 07:03:01;;;;;;;0.35;0.20;;;26.30;57.80;;;;;;4937792;29;20070;-42
2021/06/28 07:05:26;;;;;;;0.10;0.10;;;26.20;57.70;;;;;;4934187;29;20452;-42
2021/06/28 07:07:52;;;;;;;0.20;0.20;;;26.30;57.70;;;;;;4937401;29;20063;-48
2021/06/28 07:10:18;;;;;;;0.10;0.10;;;26.30;57.60;;;;;;4937799;29;20050;-42
2021/06/28 07:12:44;;;;;;;0.30;0.20;;;26.30;57.50;;;;;;4937827;29;20036;-42
2021/06/28 07:15:12;;;;;;;0.10;0.10;;;26.30;57.40;;;;;;4937451;29;20026;-42
2021/06/28 07:17:41;;;;;;;0.20;0.10;;;26.30;57.30;;;;;;4935946;29;20063;-41
2021/06/28 07:20:09;;;;;;;0.52;0.20;;;26.30;57.10;;;;;;4937505;29;20020;-48
2021/06/28 07:22:35;;;;;;;0.40;0.20;;;26.40;56.90;;;;;;4937854;29;20106;-45
2021/06/28 07:25:01;;;;;;;0.32;0.00;;;26.50;56.80;;;;;;4935874;29;20060;-40
2021/06/28 07:27:27;;;;;;;0.20;0.05;;;26.50;56.70;;;;;;4937322;29;20256;-41
2021/06/28 07:29:53;;;;;;;0.00;0.00;;;26.50;56.60;;;;;;4935523;29;20055;-46
2021/06/28 07:32:18;;;;;;;0.10;0.10;;;26.50;56.60;;;;;;4936114;29;20028;-44
2021/06/28 07:34:44;;;;;;;0.10;0.10;;;26.50;56.50;;;;;;4937270;29;20421;-42
2021/06/28 07:37:10;;;;;;;0.00;0.00;;;26.60;56.50;;;;;;4934788;29;20039;-43
2021/06/28 07:39:36;;;;;;;0.10;0.10;;;26.60;56.40;;;;;;4937114;29;20043;-42
2021/06/28 07:42:02;;;;;;;0.25;0.10;;;26.60;56.30;;;;;;4936932;29;20552;-42
2021/06/28 07:44:28;;;;;;;0.17;0.17;;;26.60;56.20;;;;;;4937245;29;20115;-41
2021/06/28 07:46:54;;;;;;;0.15;0.13;;;26.60;56.20;;;;;;4937252;29;20449;-45
2021/06/28 07:49:22;;;;;;;0.10;0.10;;;26.60;56.10;;;;;;4936985;29;20023;-40
2021/06/28 07:51:48;;;;;;;0.08;0.08;;;26.60;56.00;;;;;;4920226;29;20501;-43
2021/06/28 07:54:16;;;;;;;0.10;0.10;;;26.60;55.90;;;;;;4936954;29;20032;-47
2021/06/28 07:56:42;;;;;;;2.63;0.50;;;26.70;55.90;;;;;;4936911;29;20531;-49
2021/06/28 07:59:07;;;;;;;0.10;0.10;;;26.70;55.90;;;;;;4936929;29;20023;-48
2021/06/28 08:01:33;;;;;;;0.10;0.10;;;26.70;55.80;;;;;;4935160;29;20024;-51
2021/06/28 08:03:59;;;;;;;0.57;0.20;;;26.70;55.80;;;;;;4935577;29;20036;-45
2021/06/28 08:06:25;;;;;;;0.10;0.10;;;26.70;55.80;;;;;;4936667;29;20031;-48
2021/06/28 08:08:54;;;;;;;0.10;0.10;;;26.80;55.80;;;;;;4936653;29;20397;-44
2021/06/28 08:11:23;;;;;;;0.10;0.10;;;26.70;55.70;;;;;;4936615;29;20024;-46
2021/06/28 08:13:54;;;;;;;0.00;0.00;;;26.70;55.60;;;;;;4936619;29;20055;-48
2021/06/28 08:16:21;;;;;;;0.10;0.10;;;26.80;55.60;;;;;;4936572;29;20024;-38
2021/06/28 08:18:48;;;;;;;0.17;0.10;;;26.80;55.60;;;;;;4936546;29;20027;-37
2021/06/28 08:21:16;;;;;;;0.65;0.13;;;26.80;55.50;;;;;;4936519;29;20032;-43
2021/06/28 08:23:42;;;;;;;0.10;0.10;;;26.80;55.40;;;;;;4936641;29;20144;-41
2021/06/28 08:26:09;;;;;;;0.10;0.10;;;26.80;55.40;;;;;;4936273;29;20035;-37
2021/06/28 08:28:35;;;;;;;0.10;0.10;;;26.80;55.30;;;;;;4934906;29;20040;-40
2021/06/28 08:31:00;;;;;;;0.10;0.10;;;26.80;55.20;;;;;;4934654;29;20539;-41
2021/06/28 08:33:26;;;;;;;0.10;0.10;;;26.80;55.20;;;;;;4918988;29;20508;-41
2021/06/28 08:35:54;;;;;;;0.05;0.05;;;26.90;55.20;;;;;;4936279;29;20131;-42
2021/06/28 08:38:20;;;;;;;0.00;0.00;;;26.80;55.10;;;;;;4936376;29;20028;-44
2021/06/28 08:40:47;;;;;;;0.08;0.08;;;26.90;55.10;;;;;;4934610;29;20511;-51
2021/06/28 08:43:13;;;;;;;0.10;0.10;;;26.90;55.00;;;;;;4936176;29;20030;-49
2021/06/28 08:45:40;;;;;;;0.10;0.10;;;26.80;55.10;;;;;;4934798;29;20027;-44
2021/06/28 08:48:08;;;;;;;0.17;0.17;;;26.90;55.00;;;;;;4935764;29;20036;-47
2021/06/28 08:50:36;;;;;;;0.10;0.10;;;26.90;55.00;;;;;;4935189;29;20114;-46
2021/06/28 08:53:02;;;;;;;0.10;0.10;;;26.90;54.80;;;;;;4934232;29;20385;-48
2021/06/28 08:55:28;;;;;;;2.53;0.10;;;26.90;54.80;;;;;;4934205;29;20083;-47
2021/06/28 08:57:54;;;;;;;0.10;0.10;;;26.90;54.70;;;;;;4935891;29;20028;-47
2021/06/28 09:00:21;;;;;;;0.20;0.10;;;26.90;54.60;;;;;;4934134;29;20047;-46
2021/06/28 09:03:10;;;;;;;0.10;0.10;;;26.90;54.60;;;;;;4935871;29;20346;-45
2021/06/28 09:06:01;;;;;;;0.03;0.03;;;26.90;54.50;;;;;;4935527;29;20059;-46
2021/06/28 09:08:27;;;;;;;0.10;0.10;;;26.90;54.60;;;;;;4935747;29;20066;-44
2021/06/28 09:10:54;;;;;;;0.10;0.10;;;26.90;54.70;;;;;;4935593;29;20055;-45
2021/06/28 09:13:36;;;;;;;0.10;0.10;;;26.90;54.60;;;;;;4935562;29;20024;-43
2021/06/28 09:16:13;;;;;;;0.10;0.10;;;26.80;54.40;;;;;;4935554;29;20102;-44
2021/06/28 09:19:08;;;;;;;0.00;0.00;;;26.80;54.40;;;;;;4935668;29;20034;-44
2021/06/28 09:21:37;;;;;;;0.13;0.10;;;26.80;54.40;;;;;;4935487;29;20273;-47
2021/06/28 09:24:06;;;;;;;0.20;0.20;;;26.80;54.50;;;;;;4935370;29;20038;-44
2021/06/28 09:26:36;;;;;;;0.43;0.10;;;26.70;54.50;;;;;;4935247;29;20548;-47
2021/06/28 09:29:08;;;;;;;0.00;0.00;;;26.70;54.40;;;;;;4934841;29;20044;-45
2021/06/28 09:31:39;;;;;;;0.10;0.10;;;26.70;54.40;;;;;;4935454;29;20046;-45
2021/06/28 09:34:18;;;;;;;0.10;0.10;;;26.70;54.50;;;;;;4935358;29;20107;-47
2021/06/28 09:36:53;;;;;;;0.10;0.10;;;26.60;54.50;;;;;;4935357;29;20031;-45
2021/06/28 09:39:38;;;;;;;0.20;0.20;;;26.60;54.50;;;;;;4935271;29;20118;-46
2021/06/28 09:42:25;;;;;;;0.10;0.10;;;26.60;54.50;;;;;;4934830;29;20047;-47
2021/06/28 09:44:56;;;;;;;0.10;0.10;;;26.60;54.50;;;;;;4934930;29;20323;-44
2021/06/28 09:47:24;;;;;;;0.10;0.10;;;26.50;54.50;;;;;;4934981;29;20024;-44
2021/06/28 09:50:12;;;;;;;0.10;0.10;;;26.60;54.50;;;;;;4934579;29;20447;-47
2021/06/28 09:52:59;;;;;;;0.10;0.10;;;26.50;54.30;;;;;;4935067;29;20433;-45
2021/06/28 09:55:33;;;;;;;0.20;0.20;;;26.50;54.20;;;;;;4934874;29;20099;-44
2021/06/28 09:58:24;;;;;;;0.17;0.17;;;26.50;54.20;;;;;;4934475;29;20596;-45
2021/06/28 10:00:52;;;;;;;0.10;0.10;;;26.40;54.00;;;;;;4934531;29;20019;-48
2021/06/28 10:03:40;;;;;;;0.10;0.10;;;26.40;54.10;;;;;;4934929;29;20103;-45
2021/06/28 10:06:11;;;;;;;0.10;0.10;;;26.40;53.90;;;;;;4934566;29;20501;-47
2021/06/28 10:08:40;;;;;;;0.20;0.20;;;26.40;54.00;;;;;;4934849;29;20055;-46
2021/06/28 10:11:23;;;;;;;0.10;0.10;;;26.40;53.90;;;;;;4934766;29;20058;-46
2021/06/28 10:13:54;;;;;;;0.15;0.15;;;26.30;53.90;;;;;;4934726;29;20024;-45
2021/06/28 10:16:22;;;;;;;0.20;0.10;;;26.30;53.90;;;;;;4934407;29;20477;-46
2021/06/28 10:18:49;;;;;;;0.20;0.10;;;26.30;53.90;;;;;;4934705;29;20035;-44
2021/06/28 10:21:15;;;;;;;0.10;0.10;;;26.30;54.00;;;;;;4933081;29;20027;-44
2021/06/28 10:23:41;;;;;;;0.10;0.10;;;26.30;54.10;;;;;;4933037;29;20024;-44
2021/06/28 10:26:08;;;;;;;0.10;0.10;;;26.30;54.10;;;;;;4934339;29;20126;-45
2021/06/28 10:28:36;;;;;;;0.10;0.10;;;26.30;54.10;;;;;;4932741;29;20083;-44
2021/06/28 10:31:03;;;;;;;0.10;0.10;;;26.30;54.10;;;;;;4934601;29;20036;-46
2021/06/28 10:33:30;;;;;;;0.20;0.20;;;26.20;54.10;;;;;;4934527;29;20024;-49
2021/06/28 10:36:03;;;;;;;0.20;0.20;;;26.30;54.20;;;;;;4934627;29;20120;-46
2021/06/28 10:38:50;;;;;;;0.10;0.10;;;26.30;54.20;;;;;;4932966;29;20067;-46
2021/06/28 10:41:38;;;;;;;0.15;0.10;;;26.30;54.10;;;;;;4934590;29;20039;-46
2021/06/28 10:44:07;;;;;;;0.10;0.10;;;26.20;54.20;;;;;;4934525;29;20103;-44
2021/06/28 10:46:36;;;;;;;0.10;0.10;;;26.20;54.20;;;;;;4934544;29;20047;-48
2021/06/28 10:49:04;;;;;;;0.28;0.28;;;26.20;54.20;;;;;;4934418;29;20382;-47
2021/06/28 10:51:51;;;;;;;0.10;0.10;;;26.10;54.10;;;;;;4934500;29;20496;-47
2021/06/28 10:54:30;;;;;;;0.10;0.10;;;26.20;54.10;;;;;;4934518;29;20065;-45
2021/06/28 10:56:56;;;;;;;0.17;0.10;;;26.10;54.10;;;;;;4934462;29;20032;-45
2021/06/28 10:59:25;;;;;;;0.20;0.20;;;26.10;54.10;;;;;;4934266;29;20043;-45
2021/06/28 11:02:11;;;;;;;0.10;0.10;;;26.10;54.00;;;;;;4934168;29;20028;-45
2021/06/28 11:04:41;;;;;;;0.10;0.10;;;26.10;54.00;;;;;;4934358;29;20028;-45
2021/06/28 11:07:12;;;;;;;0.10;0.10;;;26.10;54.00;;;;;;4934580;29;20063;-44
2021/06/28 11:09:59;;;;;;;0.20;0.20;;;26.10;54.00;;;;;;4934264;29;20040;-45
2021/06/28 11:12:30;;;;;;;0.10;0.10;;;26.10;53.90;;;;;;4935358;29;20040;-44
2021/06/28 11:15:36;;;;;;;0.20;0.20;;;26.10;54.10;;;;;;4937887;29;20035;-44
2021/06/28 11:18:04;;;;;;;0.20;0.20;;;26.10;53.90;;;;;;4937767;29;20051;-49
2021/06/28 11:20:34;;;;;;;0.20;0.20;;;26.00;54.00;;;;;;4937734;29;20083;-46
2021/06/28 11:23:20;;;;;;;0.20;0.20;;;26.00;54.00;;;;;;4936077;29;20034;-46
2021/06/28 11:25:51;;;;;;;0.10;0.10;;;26.00;53.90;;;;;;4937649;29;20485;-44
2021/06/28 11:28:39;;;;;;;0.60;0.20;;;26.00;54.00;;;;;;4937205;29;20147;-45
2021/06/28 11:31:10;;;;;;;0.10;0.10;;;26.00;54.90;;;;;;4936972;29;20024;-44
2021/06/28 11:33:40;;;;;;;0.13;0.13;;;26.00;54.10;;;;;;4937413;29;20119;-44
2021/06/28 11:36:30;;;;;;;0.10;0.10;;;26.00;54.10;;;;;;4935785;29;20279;-45
2021/06/28 11:39:00;;;;;;;0.20;0.20;;;26.00;54.10;;;;;;4937354;29;20103;-48
2021/06/28 11:41:28;;;;;;;0.40;0.40;;;26.00;54.30;;;;;;4935548;29;20032;-46
2021/06/28 11:43:58;;;;;;;0.30;0.20;;;26.00;54.20;;;;;;4937239;29;20024;-45
2021/06/28 11:46:47;;;;;;;0.30;0.30;;;26.00;54.30;;;;;;4935716;29;20039;-44
2021/06/28 11:49:23;;;;;;;0.20;0.20;;;26.00;54.30;;;;;;4937086;29;20028;-44
2021/06/28 11:51:51;;;;;;;0.20;0.20;;;26.00;54.30;;;;;;4937195;29;20115;-45
2021/06/28 11:54:20;;;;;;;0.30;0.30;;;26.00;54.60;;;;;;4935143;29;20032;-45
2021/06/28 11:56:52;;;;;;;0.20;0.20;;;26.00;54.40;;;;;;4936063;29;20036;-47
2021/06/28 11:59:21;;;;;;;0.20;0.20;;;26.00;54.40;;;;;;4936725;29;20046;-46
2021/06/28 12:01:55;;;;;;;0.30;0.30;;;26.00;54.50;;;;;;4936916;29;20039;-45
2021/06/28 12:04:23;;;;;;;0.30;0.30;;;26.00;54.40;;;;;;4936915;29;20031;-45
2021/06/28 12:06:50;;;;;;;0.30;0.30;;;26.00;54.50;;;;;;4935295;29;20032;-47
2021/06/28 12:09:18;;;;;;;0.30;0.30;;;26.00;54.50;;;;;;4936796;29;20028;-43
2021/06/28 12:11:52;;;;;;;0.30;0.30;;;26.00;54.50;;;;;;4936762;29;20036;-43
2021/06/28 12:14:39;;;;;;;0.35;0.35;;;26.00;54.50;;;;;;4936736;29;20035;-46
2021/06/28 12:17:27;;;;;;;0.30;0.30;;;26.00;54.40;;;;;;4936637;29;20032;-47
2021/06/28 12:19:58;;;;;;;0.40;0.40;;;26.00;54.40;;;;;;4935060;29;20023;-44
2021/06/28 12:22:28;;;;;;;0.30;0.30;;;26.00;54.50;;;;;;4935059;29;20024;-44
2021/06/28 12:24:56;;;;;;;0.30;0.30;;;25.90;54.30;;;;;;4936211;29;20027;-44
2021/06/28 12:27:29;;;;;;;0.43;0.43;;;25.90;54.20;;;;;;4934910;29;20123;-43
2021/06/28 12:29:55;;;;;;;0.25;0.25;;;26.00;54.30;;;;;;4935933;29;20048;-44
2021/06/28 12:32:25;;;;;;;0.40;0.40;;;26.00;54.20;;;;;;4936409;29;20442;-46
2021/06/28 12:35:13;;;;;;;0.30;0.30;;;25.90;54.10;;;;;;4936303;29;20063;-48
2021/06/28 12:37:47;;;;;;;0.30;0.30;;;25.90;54.10;;;;;;4936333;29;20027;-46
2021/06/28 12:40:35;;;;;;;0.30;0.30;;;25.90;54.10;;;;;;4935966;29;20079;-45
2021/06/28 12:43:24;;;;;;;0.28;0.28;;;25.90;54.10;;;;;;4936248;29;20107;-46
2021/06/28 12:45:51;;;;;;;0.30;0.30;;;25.90;54.10;;;;;;4935848;29;20024;-43
2021/06/28 12:48:19;;;;;;;0.32;0.32;;;25.90;55.10;;;;;;4935952;29;20023;-45
2021/06/28 12:51:06;;;;;;;0.30;0.30;;;25.90;54.20;;;;;;4936075;29;20039;-43
2021/06/28 12:53:33;;;;;;;0.25;0.25;;;25.90;54.10;;;;;;4934276;29;20019;-46
2021/06/28 12:56:06;;;;;;;0.30;0.30;;;25.90;54.20;;;;;;4935979;29;20024;-45
2021/06/28 12:58:54;;;;;;;0.30;0.30;;;25.90;54.20;;;;;;4918894;29;20027;-47
2021/06/28 13:01:40;;;;;;;0.20;0.20;;;25.90;54.20;;;;;;4934377;29;20370;-50
2021/06/28 13:04:27;;;;;;;0.30;0.30;;;25.90;54.20;;;;;;4935739;29;20485;-44
2021/06/28 13:06:55;;;;;;;0.30;0.30;;;25.90;54.20;;;;;;4936085;29;20032;-45
2021/06/28 13:09:23;;;;;;;0.28;0.28;;;25.80;54.20;;;;;;4935533;29;20046;-44
2021/06/28 13:11:53;;;;;;;0.20;0.20;;;25.80;54.20;;;;;;4935595;29;20016;-46
2021/06/28 13:14:46;;;;;;;0.35;0.35;;;25.90;54.30;;;;;;4933982;29;20087;-45
2021/06/28 13:19:59;;;;;;;0.20;0.20;;;25.90;54.30;;;;;;4935143;29;20071;-43
2021/06/28 13:22:25;;;;;;;0.20;0.20;;;25.80;54.30;;;;;;4933851;29;20174;-47
2021/06/28 13:24:53;;;;;;;0.20;0.20;;;25.80;54.20;;;;;;4935410;29;20036;-46
2021/06/28 13:27:39;;;;;;;0.20;0.20;;;25.90;54.30;;;;;;4935685;29;20019;-46
2021/06/28 13:30:26;;;;;;;0.20;0.20;;;25.90;54.10;;;;;;4935170;29;20043;-43
2021/06/28 13:33:13;;;;;;;0.20;0.20;;;25.90;54.00;;;;;;4932879;29;20035;-46
2021/06/28 13:35:43;;;;;;;0.30;0.30;;;25.80;53.90;;;;;;4934532;29;20031;-45
2021/06/28 13:38:13;;;;;;;0.20;0.20;;;25.80;53.90;;;;;;4935098;29;20020;-45
2021/06/28 13:40:42;;;;;;;0.52;0.20;;;25.80;53.80;;;;;;4934720;29;20020;-44
2021/06/28 13:43:16;;;;;;;0.30;0.20;;;25.80;53.70;;;;;;4934687;29;20047;-46
2021/06/28 13:45:43;;;;;;;0.20;0.20;;;25.80;53.60;;;;;;4935089;29;20102;-45
2021/06/28 13:48:11;;;;;;;0.20;0.20;;;25.90;53.70;;;;;;4934975;29;20091;-44
2021/06/28 13:50:42;;;;;;;0.20;0.20;;;25.90;53.60;;;;;;4935116;29;20028;-47
2021/06/28 13:53:15;;;;;;;0.10;0.10;;;25.80;53.40;;;;;;4934963;29;20082;-45
2021/06/28 13:55:43;;;;;;;0.20;0.10;;;25.80;54.30;;;;;;4934911;29;20584;-44
2021/06/28 13:58:10;;;;;;;0.20;0.20;;;25.80;53.40;;;;;;4933232;29;20054;-46
2021/06/28 14:00:40;;;;;;;0.10;0.10;;;25.80;53.40;;;;;;4934745;29;20024;-46
2021/06/28 14:03:08;;;;;;;0.20;0.20;;;25.80;53.30;;;;;;4934955;29;20050;-44
2021/06/28 14:05:34;;;;;;;0.20;0.20;;;25.80;53.30;;;;;;4934742;29;20035;-46
2021/06/28 14:08:00;;;;;;;0.25;0.20;;;25.80;53.30;;;;;;4934676;29;20028;-45
2021/06/28 14:10:27;;;;;;;0.22;0.20;;;25.80;53.20;;;;;;4934685;29;20106;-44
2021/06/28 14:12:52;;;;;;;0.20;0.20;;;25.80;53.20;;;;;;4934596;29;20032;-45
2021/06/28 14:15:18;;;;;;;0.10;0.10;;;25.80;53.20;;;;;;4934753;29;20028;-45
2021/06/28 14:17:44;;;;;;;0.20;0.20;;;25.80;53.20;;;;;;4934261;29;20035;-45
2021/06/28 14:20:14;;;;;;;0.10;0.10;;;25.80;53.20;;;;;;4934722;29;20024;-46
2021/06/28 14:22:41;;;;;;;0.22;0.10;;;25.80;53.20;;;;;;4934699;29;20027;-45
2021/06/28 14:25:10;;;;;;;0.20;0.20;;;25.80;53.20;;;;;;4933215;29;20066;-47
2021/06/28 14:27:36;;;;;;;0.20;0.20;;;25.90;53.20;;;;;;4934291;29;20027;-46
2021/06/28 14:30:03;;;;;;;0.17;0.17;;;25.90;53.20;;;;;;4934678;29;20046;-45
2021/06/28 14:32:30;;;;;;;0.20;0.20;;;25.80;53.20;;;;;;4934538;29;20400;-43
2021/06/28 14:34:57;;;;;;;0.22;0.22;;;25.80;53.20;;;;;;4934445;29;20032;-44
2021/06/28 14:37:23;;;;;;;0.25;0.20;;;25.80;53.20;;;;;;4934513;29;20028;-43
2021/06/28 14:39:49;;;;;;;0.20;0.20;;;25.80;53.30;;;;;;4934292;29;20051;-46
2021/06/28 14:42:15;;;;;;;0.20;0.20;;;25.80;53.20;;;;;;4934236;29;20072;-45
2021/06/28 14:44:41;;;;;;;0.10;0.10;;;25.80;53.20;;;;;;4934080;29;20032;-45
2021/06/28 14:47:07;;;;;;;0.10;0.10;;;25.80;53.20;;;;;;4934826;29;20497;-45
2021/06/28 14:49:33;;;;;;;0.20;0.20;;;25.80;53.20;;;;;;4937973;29;20059;-48
2021/06/28 14:51:59;;;;;;;0.20;0.20;;;25.90;53.20;;;;;;4937966;29;20055;-45
2021/06/28 14:54:25;;;;;;;0.13;0.13;;;25.80;53.20;;;;;;4937904;29;20064;-47
2021/06/28 14:56:50;;;;;;;0.20;0.20;;;25.80;53.20;;;;;;4936506;29;20162;-44
2021/06/28 14:59:16;;;;;;;0.20;0.20;;;25.80;53.20;;;;;;4936241;29;20028;-44
2021/06/28 15:01:42;;;;;;;0.28;0.28;;;25.80;53.20;;;;;;4936215;29;20034;-46
2021/06/28 15:04:08;;;;;;;0.40;0.40;;;25.90;53.30;;;;;;4937604;29;20032;-45
2021/06/28 15:06:34;;;;;;;0.63;0.38;;;25.80;53.30;;;;;;4935904;29;20034;-45
2021/06/28 15:09:00;;;;;;;0.45;0.45;;;25.90;53.40;;;;;;4937530;29;20075;-47
2021/06/28 15:11:26;;;;;;;1.35;0.80;;;25.90;53.40;;;;;;4937784;29;20103;-45
2021/06/28 15:13:52;;;;;;;2.58;1.50;;;25.80;53.30;;;;;;4937359;29;20083;-45
2021/06/28 15:16:18;;;;;;;3.42;2.22;;;25.90;53.40;;;;;;4937552;29;20035;-46
2021/06/28 15:18:44;;;;;;;3.67;2.72;;;25.90;53.30;;;;;;4937605;29;20460;-46
2021/06/28 15:21:09;;;;;;;5.05;2.75;;;25.90;53.30;;;;;;4936236;29;20027;-48
2021/06/28 15:23:35;;;;;;;5.22;2.50;;;25.90;53.40;;;;;;4937172;29;20023;-45
2021/06/28 15:26:01;;;;;;;5.75;3.10;;;25.90;53.40;;;;;;4935757;29;20039;-46
2021/06/28 15:28:27;;;;;;;5.45;3.10;;;25.90;53.40;;;;;;4937070;29;20118;-47
2021/06/28 15:30:55;;;;;;;6.07;3.00;;;25.90;53.40;;;;;;4935751;29;20031;-42
2021/06/28 15:33:21;;;;;;;6.47;3.50;;;25.90;53.60;;;;;;4937469;29;20028;-46
2021/06/28 15:35:47;;;;;;;5.72;2.97;;;26.00;53.80;;;;;;4937419;29;20153;-45
2021/06/28 15:38:13;;;;;;;5.22;3.05;;;26.00;54.10;;;;;;4937604;29;20039;-43
2021/06/28 15:40:39;;;;;;;5.93;3.20;;;26.00;54.40;;;;;;4937251;29;20027;-44
2021/06/28 15:43:05;;;;;;;6.13;3.28;;;26.00;54.60;;;;;;4937206;29;20023;-44
2021/06/28 15:45:31;;;;;;;4.85;3.22;;;26.00;54.90;;;;;;4937196;29;20032;-47
2021/06/28 15:47:56;;;;;;;4.82;2.90;;;26.00;55.00;;;;;;4935564;29;20492;-43
2021/06/28 15:50:22;;;;;;;6.25;3.15;;;26.10;55.10;;;;;;4936975;29;20106;-46
2021/06/28 15:52:50;;;;;;;5.53;3.58;;;26.00;55.10;;;;;;4935337;29;20126;-43
2021/06/28 15:55:17;;;;;;;6.20;3.70;;;26.00;55.20;;;;;;4936498;29;20024;-45
2021/06/28 15:57:44;;;;;;;7.32;3.47;;;26.00;55.20;;;;;;4936471;29;20488;-45
2021/06/28 16:00:14;;;;;;;6.45;3.33;;;26.00;55.20;;;;;;4936843;29;20052;-44
2021/06/28 16:02:40;;;;;;;5.82;3.67;;;26.10;55.30;;;;;;4933398;29;20453;-40
2021/06/28 16:05:08;;;;;;;3.80;2.90;;;26.10;55.20;;;;;;4936345;29;20413;-47
2021/06/28 16:07:35;;;;;;;4.45;2.92;;;26.10;55.20;;;;;;4916626;29;20493;-47
2021/06/28 16:10:03;;;;;;;6.00;2.80;;;26.10;55.20;;;;;;4917769;29;20024;-49
2021/06/28 16:12:29;;;;;;;5.32;2.95;;;26.10;55.20;;;;;;4917393;29;20032;-46
2021/06/28 16:14:55;;;;;;;4.80;2.60;;;26.20;55.10;;;;;;4917636;29;20034;-56
2021/06/28 16:17:20;;;;;;;3.92;2.58;;;26.20;55.10;;;;;;4916084;29;20047;-50
2021/06/28 16:19:47;;;;;;;5.20;2.55;;;26.20;55.00;;;;;;4917693;29;20495;-42
2021/06/28 16:22:13;;;;;;;3.63;2.25;;;26.30;55.00;;;;;;4916061;29;20058;-39
2021/06/28 16:24:38;;;;;;;3.45;2.40;;;26.30;54.90;;;;;;4917298;29;20465;-45
2021/06/28 16:27:06;;;;;;;3.95;2.05;;;26.30;54.80;;;;;;4915856;29;20028;-50
2021/06/28 16:29:32;;;;;;;4.28;2.03;;;26.30;54.80;;;;;;4915407;29;20122;-43
2021/06/28 16:31:57;;;;;;;3.45;1.73;;;26.30;54.70;;;;;;4917143;29;20078;-49
2021/06/28 16:34:23;;;;;;;3.03;2.05;;;26.40;54.70;;;;;;4915517;29;20035;-50
2021/06/28 16:36:49;;;;;;;3.83;2.17;;;26.40;54.60;;;;;;4917268;29;20103;-52
2021/06/28 16:39:15;;;;;;;4.30;2.25;;;26.40;54.50;;;;;;4917080;29;20035;-50
2021/06/28 16:41:41;;;;;;;3.08;1.73;;;26.50;54.50;;;;;;4915678;29;20158;-47
2021/06/28 16:44:06;;;;;;;3.22;2.03;;;26.50;54.40;;;;;;4915813;29;20040;-51
2021/06/28 16:46:32;;;;;;;2.90;1.80;;;26.50;54.40;;;;;;4917085;29;20032;-43
2021/06/28 16:48:58;;;;;;;3.47;2.03;;;26.50;54.30;;;;;;4899773;29;20536;-49
2021/06/28 16:51:24;;;;;;;2.80;2.10;;;26.50;54.30;;;;;;4915786;29;20056;-50
2021/06/28 16:53:49;;;;;;;3.05;1.67;;;26.50;54.20;;;;;;4915775;29;20504;-47
2021/06/28 16:56:15;;;;;;;2.67;1.75;;;26.60;54.20;;;;;;4916863;29;20028;-42
2021/06/28 16:58:42;;;;;;;2.92;1.63;;;26.60;54.10;;;;;;4916840;29;20485;-47
2021/06/28 17:01:08;;;;;;;3.05;1.70;;;26.60;54.00;;;;;;4915033;29;20059;-44
2021/06/28 17:03:34;;;;;;;3.45;2.00;;;26.70;54.00;;;;;;4916670;29;20347;-43
2021/06/28 17:06:01;;;;;;;2.03;1.55;;;26.60;53.90;;;;;;4916616;29;20051;-46
2021/06/28 17:08:27;;;;;;;3.63;1.70;;;26.60;53.70;;;;;;4915239;29;20119;-46
2021/06/28 17:10:54;;;;;;;3.85;1.60;;;26.60;53.60;;;;;;4915788;29;20482;-44
2021/06/28 17:13:20;;;;;;;2.45;1.50;;;26.60;53.50;;;;;;4916493;29;20028;-49
2021/06/28 17:15:46;;;;;;;2.03;1.35;;;26.70;53.50;;;;;;4916763;29;20055;-46
2021/06/28 17:18:12;;;;;;;1.63;1.50;;;26.70;53.40;;;;;;4914905;29;20165;-47
2021/06/28 17:20:38;;;;;;;1.58;1.23;;;26.70;53.10;;;;;;4914532;29;20521;-48
2021/06/28 17:23:04;;;;;;;2.65;1.20;;;26.70;52.80;;;;;;4914754;29;20024;-47
2021/06/28 17:25:30;;;;;;;0.93;0.90;;;26.70;52.50;;;;;;4914971;29;20035;-47
2021/06/28 17:27:58;;;;;;;1.48;1.15;;;26.70;52.20;;;;;;4916093;29;20066;-48
2021/06/28 17:30:25;;;;;;;1.25;0.88;;;26.70;51.80;;;;;;4915968;29;20517;-48
2021/06/28 17:32:52;;;;;;;0.70;0.70;;;26.70;51.40;;;;;;4914671;29;20077;-46
2021/06/28 17:35:17;;;;;;;0.73;0.70;;;26.70;51.00;;;;;;4916309;29;20536;-48
2021/06/28 17:37:43;;;;;;;0.55;0.55;;;26.70;50.50;;;;;;4914544;29;20114;-44
2021/06/28 17:40:10;;;;;;;0.75;0.50;;;26.70;50.10;;;;;;4916150;29;20055;-44
2021/06/28 17:42:36;;;;;;;0.40;0.40;;;26.70;49.70;;;;;;4915912;29;20024;-45
2021/06/28 17:45:03;;;;;;;0.30;0.30;;;26.70;49.40;;;;;;4914292;29;20024;-49
2021/06/28 17:47:32;;;;;;;0.30;0.30;;;26.60;49.10;;;;;;4915731;29;20036;-44
2021/06/28 17:49:58;;;;;;;0.20;0.20;;;26.70;49.00;;;;;;4915628;29;20639;-47
2021/06/28 17:52:24;;;;;;;0.30;0.30;;;26.60;48.80;;;;;;4914115;29;20409;-45
2021/06/28 17:54:49;;;;;;;0.25;0.20;;;26.70;48.60;;;;;;4914406;29;20034;-45
2021/06/28 17:57:15;;;;;;;0.30;0.30;;;26.60;48.30;;;;;;4915383;29;20077;-44
2021/06/28 17:59:42;;;;;;;0.20;0.20;;;26.60;48.10;;;;;;4913605;29;20493;-45
2021/06/28 18:02:08;;;;;;;0.20;0.20;;;26.60;47.80;;;;;;4915261;29;20024;-45
2021/06/28 18:04:36;;;;;;;0.20;0.20;;;26.50;47.40;;;;;;4926359;29;20032;-45
2021/06/28 18:07:04;;;;;;;0.20;0.20;;;26.50;47.20;;;;;;4933859;29;20098;-46
2021/06/28 18:09:34;;;;;;;0.10;0.10;;;26.40;46.90;;;;;;4933599;29;20040;-47
2021/06/28 18:12:01;;;;;;;0.38;0.38;;;26.30;46.70;;;;;;4932190;29;20024;-49
2021/06/28 18:14:28;;;;;;;0.10;0.10;;;26.30;46.60;;;;;;4933982;29;20460;-49
2021/06/28 18:16:54;;;;;;;0.30;0.30;;;26.30;46.50;;;;;;4933797;29;20495;-49
2021/06/28 18:19:20;;;;;;;0.30;0.30;;;26.20;46.40;;;;;;4933131;29;20030;-45
2021/06/28 18:21:46;;;;;;;0.30;0.30;;;26.20;46.50;;;;;;4933843;29;20370;-45
2021/06/28 18:24:14;;;;;;;0.30;0.30;;;26.10;46.80;;;;;;4932140;29;20031;-47
2021/06/28 18:26:41;;;;;;;0.20;0.20;;;26.10;47.40;;;;;;4934168;29;20074;-45
2021/06/28 18:29:06;;;;;;;0.25;0.25;;;26.00;47.90;;;;;;4933682;29;20060;-46
2021/06/28 18:31:36;;;;;;;0.20;0.20;;;26.00;48.30;;;;;;4933937;29;20039;-47
2021/06/28 18:34:04;;;;;;;0.30;0.30;;;25.90;48.60;;;;;;4932835;29;20020;-45
2021/06/28 18:36:30;;;;;;;0.30;0.30;;;25.80;48.90;;;;;;4931881;29;20070;-53
2021/06/28 18:38:56;;;;;;;0.13;0.13;;;25.80;49.30;;;;;;4933741;29;20486;-52
2021/06/28 18:41:22;;;;;;;0.13;0.13;;;25.80;49.40;;;;;;4933352;29;20320;-54
2021/06/28 18:43:49;;;;;;;0.20;0.20;;;25.70;49.40;;;;;;4948905;29;20073;-53
2021/06/28 18:46:15;;;;;;;0.28;0.28;;;25.70;49.50;;;;;;4934424;29;20028;-55
2021/06/28 18:48:41;;;;;;;0.25;0.25;;;25.70;49.50;;;;;;4934653;29;20027;-52
2021/06/28 18:51:07;;;;;;;0.17;0.17;;;25.60;49.50;;;;;;4933310;29;20031;-49
2021/06/28 18:53:35;;;;;;;0.20;0.20;;;25.60;49.60;;;;;;4934564;29;20074;-54
2021/06/28 18:56:26;;;;;;;0.20;0.20;;;25.60;49.60;;;;;;4934085;29;20038;-55
2021/06/28 18:58:48;;;;;;;0.30;0.30;;;25.60;49.60;;;;;;4933078;29;20024;-52
2021/06/28 19:01:14;;;;;;;0.30;0.30;;;25.50;49.70;;;;;;4930903;29;20091;-51
2021/06/28 19:03:40;;;;;;;0.50;0.43;;;25.60;49.90;;;;;;4933751;29;20035;-47
2021/06/28 19:06:06;;;;;;;0.40;0.40;;;25.50;49.90;;;;;;4933746;29;20040;-55
2021/06/28 19:08:32;;;;;;;0.52;0.52;;;25.60;50.00;;;;;;4931763;29;20489;-52
2021/06/28 19:10:57;;;;;;;0.50;0.50;;;25.50;50.00;;;;;;4933347;29;20027;-49
2021/06/28 19:13:24;;;;;;;0.52;0.50;;;25.40;50.00;;;;;;4916787;29;20126;-54
2021/06/28 19:15:51;;;;;;;0.55;0.55;;;25.40;49.90;;;;;;4934028;29;20024;-53
2021/06/28 19:18:17;;;;;;;0.63;0.60;;;25.50;49.90;;;;;;4933955;29;20027;-54
2021/06/28 19:20:44;;;;;;;1.13;0.73;;;25.50;49.80;;;;;;4933778;29;20027;-51
2021/06/28 19:23:10;;;;;;;0.70;0.70;;;25.40;49.60;;;;;;4932290;29;20035;-54
2021/06/28 19:25:37;;;;;;;0.60;0.60;;;25.40;49.50;;;;;;4933898;29;20024;-54
2021/06/28 19:28:04;;;;;;;0.50;0.50;;;25.40;49.50;;;;;;4931508;29;20071;-56
2021/06/28 19:30:30;;;;;;;0.60;0.60;;;25.40;49.50;;;;;;4932199;29;20046;-55